Terminal Aerodrome Forecast
Issued by NWS Omaha/Valley, NE

Home | Current Version | Previous Version | Text Only | Print | Product List | Glossary On
Versions: 1 2 3 4 5 6 7 8 9 10 11 12 13 14 15 16
000
FTUS43 KOAX 282320
TAFOMA
TAF
KOMA 282320Z 2900/2924 14013KT P6SM SCT040 BKN250
     FM290200 15008KT P6SM BKN250
     FM290900 14005KT 6SM BR SCT040 BKN100
      TEMPO 2910/2913 4SM BR
     FM291600 16008KT P6SM SCT040 BKN150=

USA.gov is the U.S. government's official web portal to all federal, state and local government web resources and services.